Time;durP1;ratioP1;P1;durP2;ratioP2;P2;SDS_P1;SDS_P2;PMS_P1;PMS_P2;Temp;Humidity;BMP_temperature;BMP_pressure;BME280_temperature;BME280_humidity;BME280_pressure;Samples;Min_cycle;Max_cycle;Signal;HPM_P1;HPM_P2
2021/03/24 00:01:00;;;;;;;30.02;18.73;;;6.50;55.30;;;;;;4936200;29;20727;-73
2021/03/24 00:03:27;;;;;;;28.02;18.75;;;6.50;56.70;;;;;;4936292;29;20282;-74
2021/03/24 00:05:54;;;;;;;27.90;18.77;;;6.50;48.00;;;;;;4937291;29;20298;-73
2021/03/24 00:08:23;;;;;;;29.13;18.50;;;6.50;99.90;;;;;;4923165;29;20226;-73
2021/03/24 00:10:50;;;;;;;32.08;18.17;;;6.40;99.90;;;;;;4926988;29;20672;-73
2021/03/24 00:13:17;;;;;;;28.10;18.10;;;6.40;99.90;;;;;;4934978;29;20289;-73
2021/03/24 00:15:43;;;;;;;30.38;19.15;;;6.40;99.90;;;;;;4933787;29;20202;-74
2021/03/24 00:18:10;;;;;;;25.67;17.63;;;6.40;99.90;;;;;;4935256;29;20199;-72
2021/03/24 00:20:39;;;;;;;33.65;19.73;;;6.30;99.90;;;;;;4934864;29;20205;-73
2021/03/24 00:23:09;;;;;;;31.30;18.70;;;6.30;99.90;;;;;;4935945;29;20199;-72
2021/03/24 00:25:37;;;;;;;35.80;19.52;;;6.30;99.90;;;;;;4935953;29;20250;-73
2021/03/24 00:28:06;;;;;;;28.63;19.75;;;6.30;99.90;;;;;;4936617;29;20660;-73
2021/03/24 00:30:36;;;;;;;32.55;19.25;;;6.30;99.90;;;;;;4921179;29;20209;-72
2021/03/24 00:33:03;;;;;;;28.70;20.23;;;6.20;99.90;;;;;;4927391;29;20257;-73
2021/03/24 00:35:30;;;;;;;25.83;18.45;;;6.20;99.90;;;;;;4934666;29;20221;-73
2021/03/24 00:37:57;;;;;;;32.35;19.00;;;6.20;99.90;;;;;;4934749;29;20205;-72
2021/03/24 00:40:27;;;;;;;27.65;19.08;;;6.10;99.90;;;;;;4933656;29;20634;-73
2021/03/24 00:42:55;;;;;;;31.88;19.90;;;6.20;99.90;;;;;;4934775;29;20707;-73
2021/03/24 00:45:21;;;;;;;31.58;18.88;;;6.10;99.90;;;;;;4935293;29;20223;-73
2021/03/24 00:47:48;;;;;;;29.48;18.77;;;6.10;99.90;;;;;;4936727;29;20619;-72
2021/03/24 00:50:19;;;;;;;24.02;17.55;;;6.10;1.00;;;;;;4935691;29;20253;-73
2021/03/24 00:52:45;;;;;;;25.50;17.40;;;6.10;1.00;;;;;;4920504;29;20257;-72
2021/03/24 00:55:13;;;;;;;34.20;19.23;;;6.10;1.00;;;;;;4927166;29;20222;-73
2021/03/24 00:57:40;;;;;;;28.30;17.75;;;6.00;1.00;;;;;;4934356;29;20760;-74
2021/03/24 01:00:12;;;;;;;27.90;17.77;;;6.00;1.00;;;;;;4934412;29;20690;-74
2021/03/24 01:02:39;;;;;;;28.13;18.10;;;6.00;1.00;;;;;;4917710;29;20211;-73
2021/03/24 01:05:07;;;;;;;30.55;19.90;;;6.00;1.00;;;;;;4935732;29;20277;-74
2021/03/24 01:07:34;;;;;;;27.00;18.70;;;6.00;1.00;;;;;;4936458;29;20215;-72
2021/03/24 01:10:00;;;;;;;26.58;17.75;;;5.90;1.00;;;;;;4936287;29;20250;-73
2021/03/24 01:12:28;;;;;;;32.25;18.67;;;5.90;1.00;;;;;;4933746;29;20198;-73
2021/03/24 01:14:54;;;;;;;29.63;17.23;;;5.90;1.00;;;;;;4921485;29;20210;-73
2021/03/24 01:17:22;;;;;;;30.00;19.60;;;5.90;1.00;;;;;;4917479;29;20712;-72
2021/03/24 01:19:48;;;;;;;25.85;17.90;;;5.90;1.00;;;;;;4915078;29;20209;-73
2021/03/24 01:22:15;;;;;;;27.55;19.30;;;5.90;1.00;;;;;;4914938;29;20199;-73
2021/03/24 01:24:41;;;;;;;26.98;18.45;;;5.80;1.00;;;;;;4914992;29;20226;-73
2021/03/24 01:27:09;;;;;;;27.70;18.85;;;5.80;1.00;;;;;;4930908;29;20202;-73
2021/03/24 01:29:35;;;;;;;33.30;18.92;;;5.80;1.00;;;;;;4935764;29;20276;-72
2021/03/24 01:32:02;;;;;;;29.20;18.17;;;5.80;1.00;;;;;;4936111;29;20702;-73
2021/03/24 01:34:30;;;;;;;29.33;18.98;;;5.70;1.00;;;;;;4935269;29;20228;-73
2021/03/24 01:36:56;;;;;;;28.90;19.65;;;5.70;1.00;;;;;;4921164;29;20210;-73
2021/03/24 01:39:23;;;;;;;32.78;19.45;;;5.70;1.00;;;;;;4917430;29;20195;-73
2021/03/24 01:41:49;;;;;;;29.25;17.88;;;5.70;1.00;;;;;;4914480;29;20280;-72
2021/03/24 01:44:16;;;;;;;26.25;18.15;;;5.70;1.00;;;;;;4914146;29;20231;-72
2021/03/24 01:46:44;;;;;;;28.55;18.77;;;5.60;1.00;;;;;;4914541;29;20223;-73
2021/03/24 01:49:17;;;;;;;26.98;17.15;;;5.60;1.00;;;;;;4929004;29;20233;-73
2021/03/24 01:51:48;;;;;;;29.23;18.95;;;5.60;1.00;;;;;;4934381;29;20607;-73
2021/03/24 01:54:18;;;;;;;31.02;19.77;;;5.60;1.00;;;;;;4935403;29;20218;-72
2021/03/24 01:56:48;;;;;;;28.17;18.48;;;5.60;5.90;;;;;;4932780;29;20214;-73
2021/03/24 01:59:16;;;;;;;27.88;18.60;;;5.50;47.60;;;;;;4919664;29;20195;-72
2021/03/24 02:01:42;;;;;;;28.33;18.05;;;5.50;79.20;;;;;;4917976;29;20206;-73
2021/03/24 02:04:09;;;;;;;28.30;18.45;;;5.50;99.90;;;;;;4932625;29;20256;-74
2021/03/24 02:06:42;;;;;;;29.40;18.58;;;5.40;99.90;;;;;;4933055;29;20211;-73
2021/03/24 02:09:18;;;;;;;34.92;19.25;;;5.40;99.90;;;;;;4932968;29;20229;-73
2021/03/24 02:11:54;;;;;;;27.83;18.83;;;5.40;99.90;;;;;;4934555;29;20297;-73
2021/03/24 02:14:25;;;;;;;30.55;18.90;;;5.40;99.90;;;;;;4934989;29;20228;-73
2021/03/24 02:16:54;;;;;;;30.13;19.60;;;5.40;99.90;;;;;;4935074;29;20297;-73
2021/03/24 02:19:31;;;;;;;32.38;19.40;;;5.40;99.90;;;;;;4929395;29;20227;-73
2021/03/24 02:22:00;;;;;;;29.70;18.88;;;5.30;99.90;;;;;;4919343;29;20572;-73
2021/03/24 02:24:41;;;;;;;29.52;18.20;;;5.30;99.90;;;;;;4914112;29;20219;-73
2021/03/24 02:27:11;;;;;;;29.63;18.95;;;5.30;99.90;;;;;;4913778;29;20207;-73
2021/03/24 02:29:44;;;;;;;31.58;18.48;;;5.30;99.90;;;;;;4914139;29;20653;-73
2021/03/24 02:32:15;;;;;;;30.77;19.48;;;5.30;99.90;;;;;;4919820;29;20722;-74
2021/03/24 02:34:43;;;;;;;27.73;19.10;;;5.30;99.90;;;;;;4933749;29;20350;-74
2021/03/24 02:37:11;;;;;;;32.05;20.02;;;5.30;99.90;;;;;;4933575;29;20665;-73
2021/03/24 02:39:41;;;;;;;25.67;17.70;;;5.20;99.90;;;;;;4933633;29;20223;-73
2021/03/24 02:42:11;;;;;;;35.10;18.70;;;5.20;99.90;;;;;;4924244;29;20672;-73
2021/03/24 02:44:40;;;;;;;32.33;20.83;;;5.20;99.90;;;;;;4917712;29;20215;-73
2021/03/24 02:47:08;;;;;;;27.25;18.63;;;5.10;99.90;;;;;;4895968;29;20689;-73
2021/03/24 02:49:36;;;;;;;28.77;19.63;;;5.10;99.90;;;;;;4913274;29;20291;-73
2021/03/24 02:52:03;;;;;;;29.80;18.45;;;5.10;1.00;;;;;;4912476;29;20206;-73
2021/03/24 02:54:32;;;;;;;29.52;19.05;;;5.10;1.00;;;;;;4921980;29;20279;-74
2021/03/24 02:57:00;;;;;;;30.70;19.20;;;5.10;1.00;;;;;;4933283;29;20231;-73
2021/03/24 02:59:28;;;;;;;30.00;20.42;;;5.00;1.00;;;;;;4934470;29;20284;-73
2021/03/24 03:02:02;;;;;;;35.17;20.67;;;5.00;1.00;;;;;;4934514;29;20200;-74
2021/03/24 03:04:34;;;;;;;28.85;18.20;;;5.00;1.00;;;;;;4921052;29;20219;-75
2021/03/24 03:07:05;;;;;;;26.20;17.95;;;5.00;1.00;;;;;;4919996;29;20201;-73
2021/03/24 03:09:38;;;;;;;31.52;19.05;;;5.00;1.00;;;;;;4932116;29;20317;-74
2021/03/24 03:12:11;;;;;;;28.75;19.20;;;5.00;1.00;;;;;;4931067;29;20295;-73
2021/03/24 03:14:42;;;;;;;35.22;19.75;;;5.00;1.00;;;;;;4931972;29;20215;-73
2021/03/24 03:17:13;;;;;;;28.70;20.20;;;5.00;1.00;;;;;;4932195;29;20205;-73
2021/03/24 03:19:44;;;;;;;28.63;18.98;;;4.90;1.00;;;;;;4934327;29;20729;-74
2021/03/24 03:22:16;;;;;;;31.10;19.92;;;4.90;1.00;;;;;;4934078;29;20306;-73
2021/03/24 03:24:48;;;;;;;33.17;21.40;;;4.90;1.00;;;;;;4933259;29;20219;-73
2021/03/24 03:27:17;;;;;;;33.88;20.40;;;4.90;1.00;;;;;;4917838;29;20296;-73
2021/03/24 03:29:45;;;;;;;31.27;18.48;;;4.90;1.00;;;;;;4914490;29;20298;-73
2021/03/24 03:32:16;;;;;;;34.65;20.48;;;4.80;1.00;;;;;;4913218;29;20200;-73
2021/03/24 03:34:46;;;;;;;33.60;17.88;;;4.80;1.00;;;;;;4911641;29;20723;-73
2021/03/24 03:37:14;;;;;;;27.27;18.15;;;4.70;1.00;;;;;;4913191;29;20231;-73
2021/03/24 03:39:44;;;;;;;31.10;19.23;;;4.70;1.00;;;;;;4931012;29;20218;-73
2021/03/24 03:42:11;;;;;;;30.30;19.40;;;4.70;1.00;;;;;;4934002;29;20217;-73
2021/03/24 03:44:38;;;;;;;33.47;20.38;;;4.70;1.00;;;;;;4933742;29;20269;-73
2021/03/24 03:47:09;;;;;;;31.30;19.90;;;4.70;1.00;;;;;;4931131;29;20296;-73
2021/03/24 03:49:36;;;;;;;29.95;19.17;;;4.70;1.00;;;;;;4917377;29;20940;-73
2021/03/24 03:52:18;;;;;;;34.28;21.08;;;4.70;1.00;;;;;;4927357;29;20218;-73
2021/03/24 03:54:50;;;;;;;30.95;19.67;;;4.60;14.90;;;;;;4931620;29;20696;-73
2021/03/24 03:57:32;;;;;;;30.55;19.00;;;4.60;79.10;;;;;;4931858;29;20561;-73
2021/03/24 04:00:08;;;;;;;32.92;18.95;;;4.60;90.30;;;;;;4932234;29;20265;-73
2021/03/24 04:02:41;;;;;;;28.20;19.63;;;4.60;99.90;;;;;;4932624;29;20637;-72
2021/03/24 04:05:13;;;;;;;31.27;19.58;;;4.60;94.10;;;;;;4933832;29;20225;-71
2021/03/24 04:07:44;;;;;;;32.38;20.70;;;4.60;94.30;;;;;;4932565;29;20589;-72
2021/03/24 04:10:12;;;;;;;30.25;19.40;;;4.60;95.10;;;;;;4924256;29;20227;-72
2021/03/24 04:12:41;;;;;;;32.53;19.42;;;4.60;86.90;;;;;;4918992;29;20222;-73
2021/03/24 04:15:12;;;;;;;34.05;19.40;;;4.50;99.90;;;;;;4931009;29;20296;-74
2021/03/24 04:17:47;;;;;;;31.58;20.05;;;4.50;99.90;;;;;;4914729;29;20683;-73
2021/03/24 04:20:16;;;;;;;30.02;19.25;;;4.50;99.90;;;;;;4931748;29;20273;-74
2021/03/24 04:22:44;;;;;;;35.75;20.73;;;4.50;99.90;;;;;;4930782;29;20217;-73
2021/03/24 04:25:18;;;;;;;33.20;20.02;;;4.40;99.90;;;;;;4932778;29;20216;-73
2021/03/24 04:27:47;;;;;;;30.85;19.67;;;4.40;99.90;;;;;;4935815;29;20657;-73
2021/03/24 04:30:19;;;;;;;32.75;21.42;;;4.40;99.90;;;;;;4936995;29;20326;-73
2021/03/24 04:32:46;;;;;;;34.05;19.25;;;4.40;99.90;;;;;;4923186;29;21425;-72
2021/03/24 04:35:17;;;;;;;33.22;19.50;;;4.40;99.90;;;;;;4919972;29;20216;-74
2021/03/24 04:37:47;;;;;;;33.13;20.20;;;4.40;99.90;;;;;;4915817;29;20235;-72
2021/03/24 04:40:22;;;;;;;34.05;18.98;;;4.30;99.90;;;;;;4914252;29;20558;-73
2021/03/24 04:42:53;;;;;;;34.30;20.58;;;4.30;99.90;;;;;;4915855;29;20198;-73
2021/03/24 04:45:31;;;;;;;29.35;18.50;;;4.30;99.90;;;;;;4929121;29;20288;-73
2021/03/24 04:48:01;;;;;;;33.38;19.27;;;4.30;99.90;;;;;;4936718;29;20539;-73
2021/03/24 04:50:31;;;;;;;27.80;18.50;;;4.30;99.90;;;;;;4936774;29;20230;-73
2021/03/24 04:53:02;;;;;;;28.10;18.42;;;4.30;99.90;;;;;;4935357;29;20277;-73
2021/03/24 04:55:30;;;;;;;30.52;20.50;;;4.30;99.90;;;;;;4921811;29;20223;-73
2021/03/24 04:57:58;;;;;;;35.30;20.80;;;4.30;99.90;;;;;;4917789;29;20701;-73
2021/03/24 05:00:32;;;;;;;31.20;18.63;;;4.20;99.90;;;;;;4914403;29;20215;-73
2021/03/24 05:03:03;;;;;;;28.88;18.92;;;4.20;99.90;;;;;;4915138;29;20211;-73
2021/03/24 05:05:32;;;;;;;34.20;20.77;;;4.20;1.00;;;;;;4915223;29;20766;-73
2021/03/24 05:08:06;;;;;;;32.72;19.55;;;4.20;1.00;;;;;;4934300;29;20210;-73
2021/03/24 05:10:34;;;;;;;28.88;19.38;;;4.20;1.00;;;;;;4936116;29;20254;-73
2021/03/24 05:13:09;;;;;;;29.60;19.50;;;4.20;1.00;;;;;;4935330;29;20217;-74
2021/03/24 05:15:40;;;;;;;31.38;18.98;;;4.20;1.00;;;;;;4930118;29;20250;-73
2021/03/24 05:18:11;;;;;;;31.30;19.15;;;4.20;1.00;;;;;;4920373;29;20204;-73
2021/03/24 05:20:43;;;;;;;34.70;20.90;;;4.20;1.00;;;;;;4931535;29;20741;-73
2021/03/24 05:23:14;;;;;;;31.13;19.35;;;4.10;1.00;;;;;;4932853;29;20214;-72
2021/03/24 05:25:42;;;;;;;35.40;19.33;;;4.10;1.00;;;;;;4932658;29;20204;-74
2021/03/24 05:28:18;;;;;;;31.05;18.40;;;4.10;1.00;;;;;;4917364;29;20214;-73
2021/03/24 05:30:52;;;;;;;33.38;20.75;;;4.10;1.00;;;;;;4935760;29;20321;-73
2021/03/24 05:33:24;;;;;;;34.65;19.17;;;4.10;1.00;;;;;;4934403;29;20555;-73
2021/03/24 05:36:01;;;;;;;29.48;19.67;;;4.10;1.00;;;;;;4935876;29;20230;-73
2021/03/24 05:38:33;;;;;;;34.17;20.95;;;4.10;1.00;;;;;;4919392;29;20219;-73
2021/03/24 05:41:22;;;;;;;30.98;19.38;;;4.10;1.00;;;;;;4915887;29;20215;-73
2021/03/24 05:44:04;;;;;;;36.17;19.42;;;4.10;1.00;;;;;;4913170;29;20341;-73
2021/03/24 05:46:44;;;;;;;35.42;20.55;;;4.10;1.00;;;;;;4914159;29;20631;-73
2021/03/24 05:49:26;;;;;;;34.90;20.20;;;4.10;1.00;;;;;;4914587;29;20223;-73
2021/03/24 05:52:05;;;;;;;35.95;20.83;;;4.10;1.00;;;;;;4931655;29;20297;-73
2021/03/24 05:54:46;;;;;;;31.50;19.23;;;4.10;17.10;;;;;;4935519;29;20856;-74
2021/03/24 05:57:27;;;;;;;28.05;19.25;;;4.10;29.60;;;;;;4934388;29;20209;-73
2021/03/24 06:00:06;;;;;;;33.10;20.02;;;4.10;92.10;;;;;;4928087;29;20206;-73
2021/03/24 06:02:41;;;;;;;34.47;20.63;;;4.10;99.90;;;;;;4920312;29;20221;-75
2021/03/24 06:05:14;;;;;;;31.92;19.42;;;4.10;99.90;;;;;;4932736;29;20303;-74
2021/03/24 06:08:03;;;;;;;33.88;19.77;;;4.20;99.90;;;;;;4931816;29;20287;-73
2021/03/24 06:10:44;;;;;;;31.38;19.60;;;4.20;99.90;;;;;;4933381;29;20231;-75
2021/03/24 06:13:47;;;;;;;29.70;18.40;;;4.30;99.90;;;;;;4932609;29;20672;-75
2021/03/24 06:16:40;;;;;;;31.70;20.08;;;4.30;99.90;;;;;;4935137;29;20336;-74
2021/03/24 06:19:22;;;;;;;28.08;18.50;;;4.30;99.90;;;;;;4934872;29;20290;-74
2021/03/24 06:21:59;;;;;;;29.45;18.90;;;4.40;99.90;;;;;;4929819;29;20251;-74
2021/03/24 06:24:48;;;;;;;32.75;19.85;;;4.50;99.90;;;;;;4918858;29;20274;-75
2021/03/24 06:27:30;;;;;;;30.90;19.80;;;4.50;99.90;;;;;;4913303;29;20214;-73
2021/03/24 06:30:14;;;;;;;31.77;20.80;;;4.60;99.90;;;;;;4913530;29;20699;-73
2021/03/24 06:32:54;;;;;;;27.33;17.88;;;4.60;99.90;;;;;;4913989;29;20260;-74
2021/03/24 06:35:40;;;;;;;30.77;18.98;;;4.70;99.90;;;;;;4925520;29;20227;-74
2021/03/24 06:38:22;;;;;;;30.73;19.50;;;4.80;99.90;;;;;;4934643;29;20194;-74
2021/03/24 06:41:00;;;;;;;31.20;19.67;;;4.90;99.90;;;;;;4934692;29;20218;-73
2021/03/24 06:43:46;;;;;;;28.67;18.23;;;5.00;1.00;;;;;;4933396;29;20297;-73
2021/03/24 06:46:22;;;;;;;28.08;20.02;;;5.10;1.00;;;;;;4919380;29;20227;-73
2021/03/24 06:49:00;;;;;;;32.40;19.25;;;5.20;1.00;;;;;;4928892;29;20273;-73
2021/03/24 06:52:02;;;;;;;32.20;19.20;;;5.30;1.00;;;;;;4932212;29;20812;-73
2021/03/24 06:54:53;;;;;;;27.38;18.67;;;5.40;1.00;;;;;;4931207;29;20298;-74
2021/03/24 06:57:39;;;;;;;31.60;20.08;;;5.50;99.90;;;;;;4932942;29;20203;-73
2021/03/24 07:00:29;;;;;;;32.17;19.83;;;5.60;99.90;;;;;;4925515;29;20195;-72
2021/03/24 07:03:21;;;;;;;27.83;17.98;;;5.70;1.00;;;;;;4918068;29;20617;-74
2021/03/24 07:05:58;;;;;;;30.40;19.08;;;5.80;1.00;;;;;;4912539;29;20213;-72
2021/03/24 07:08:39;;;;;;;28.10;19.20;;;5.90;99.90;;;;;;4913243;29;20211;-75
2021/03/24 07:11:21;;;;;;;28.77;18.65;;;6.00;99.90;;;;;;4913469;29;20211;-76
2021/03/24 07:14:06;;;;;;;27.60;17.85;;;6.10;90.10;;;;;;4926069;29;20231;-75
2021/03/24 07:16:47;;;;;;;29.67;19.00;;;6.20;77.00;;;;;;4933948;29;20292;-74
2021/03/24 07:19:27;;;;;;;29.17;18.73;;;6.40;1.00;;;;;;4934105;29;20210;-74
2021/03/24 07:22:08;;;;;;;27.80;18.00;;;6.50;1.00;;;;;;4933070;29;20216;-74
2021/03/24 07:24:49;;;;;;;27.10;18.67;;;6.60;1.00;;;;;;4919243;29;20519;-74
2021/03/24 07:27:30;;;;;;;27.10;19.10;;;6.70;1.00;;;;;;4927720;29;20533;-74
2021/03/24 07:30:05;;;;;;;34.50;20.33;;;6.90;1.00;;;;;;4930579;29;20481;-74
2021/03/24 07:32:41;;;;;;;28.13;17.93;;;7.00;99.90;;;;;;4932067;29;20453;-74
2021/03/24 07:35:18;;;;;;;30.80;20.37;;;7.10;99.90;;;;;;4932590;29;20552;-74
2021/03/24 07:38:11;;;;;;;27.60;19.00;;;7.20;99.90;;;;;;4934195;29;20544;-74
2021/03/24 07:41:07;;;;;;;31.97;20.37;;;7.30;99.90;;;;;;4933677;29;20463;-74
2021/03/24 07:43:50;;;;;;;31.50;20.13;;;7.50;99.90;;;;;;4933000;29;20939;-74
2021/03/24 07:46:31;;;;;;;32.53;19.00;;;7.60;39.00;;;;;;4921141;29;20471;-76
2021/03/24 07:49:15;;;;;;;30.97;18.87;;;7.70;1.00;;;;;;4916297;29;20499;-75
2021/03/24 07:52:04;;;;;;;25.47;16.60;;;7.90;1.00;;;;;;4911328;29;20975;-75
2021/03/24 07:54:37;;;;;;;31.23;20.50;;;8.00;1.00;;;;;;4911534;29;20836;-74
2021/03/24 07:57:12;;;;;;;29.70;19.00;;;8.10;1.00;;;;;;4911902;29;20925;-75
2021/03/24 07:59:44;;;;;;;34.90;20.30;;;8.30;1.00;;;;;;4914553;29;20970;-74
2021/03/24 08:02:29;;;;;;;30.03;19.77;;;8.40;1.00;;;;;;4917391;29;20449;-75
2021/03/24 08:05:14;;;;;;;24.20;17.20;;;8.50;1.00;;;;;;4917105;29;20551;-75
2021/03/24 08:07:50;;;;;;;23.53;17.47;;;8.60;1.00;;;;;;4920221;29;20542;-75
2021/03/24 08:10:24;;;;;;;25.40;18.13;;;8.70;1.00;;;;;;4920116;29;21935;-75
2021/03/24 08:13:10;;;;;;;27.03;18.70;;;8.90;1.00;;;;;;4913519;29;20465;-75
2021/03/24 08:15:54;;;;;;;27.40;17.90;;;9.00;1.00;;;;;;4914788;29;20506;-75
2021/03/24 08:18:30;;;;;;;27.83;18.80;;;9.00;1.00;;;;;;4915524;29;20443;-75
2021/03/24 08:21:03;;;;;;;31.83;19.87;;;9.20;1.00;;;;;;4929254;29;20465;-75
2021/03/24 08:23:53;;;;;;;28.80;18.23;;;9.30;99.90;;;;;;4935934;29;20541;-75
2021/03/24 08:26:25;;;;;;;28.47;19.20;;;9.40;99.90;;;;;;4936977;29;21163;-75
2021/03/24 08:29:02;;;;;;;28.67;19.30;;;9.50;99.90;;;;;;4937227;29;20533;-75
2021/03/24 08:31:58;;;;;;;30.50;18.53;;;9.50;99.90;;;;;;4922108;29;20451;-75
2021/03/24 08:34:45;;;;;;;29.90;19.87;;;9.60;99.90;;;;;;4930710;29;20454;-75
2021/03/24 08:37:34;;;;;;;34.00;18.90;;;9.70;99.90;;;;;;4935553;29;20452;-76
2021/03/24 08:40:20;;;;;;;32.30;18.90;;;9.80;99.90;;;;;;4934258;29;20457;-76
2021/03/24 08:43:09;;;;;;;30.73;19.03;;;9.90;99.90;;;;;;4934213;29;20926;-76
2021/03/24 08:45:44;;;;;;;29.90;18.80;;;10.00;99.90;;;;;;4936416;29;21115;-76
2021/03/24 08:48:15;;;;;;;27.93;18.43;;;10.10;99.90;;;;;;4936983;29;20855;-76
2021/03/24 08:50:54;;;;;;;30.93;19.73;;;10.20;99.90;;;;;;4935644;29;20521;-76
2021/03/24 08:53:31;;;;;;;27.40;18.40;;;10.20;99.90;;;;;;4923536;29;20506;-75
2021/03/24 08:56:01;;;;;;;26.63;18.73;;;10.30;99.90;;;;;;4926229;29;20478;-75
2021/03/24 08:58:32;;;;;;;29.17;18.40;;;10.40;99.90;;;;;;4934697;29;20446;-75
2021/03/24 09:01:19;;;;;;;28.53;20.00;;;10.40;99.90;;;;;;4934231;29;20443;-75
2021/03/24 09:04:03;;;;;;;30.73;19.43;;;10.50;99.90;;;;;;4934420;29;20883;-74
2021/03/24 09:06:40;;;;;;;28.10;18.10;;;10.60;99.90;;;;;;4936193;29;20493;-75
2021/03/24 09:09:17;;;;;;;30.03;18.70;;;10.70;99.90;;;;;;4936682;29;20505;-75
2021/03/24 09:11:55;;;;;;;29.70;19.50;;;10.80;99.90;;;;;;4934907;29;20457;-74
2021/03/24 09:14:31;;;;;;;30.83;18.43;;;10.80;99.90;;;;;;4930446;29;20967;-72
2021/03/24 09:17:19;;;;;;;32.60;19.70;;;10.90;99.90;;;;;;4920552;29;20768;-73
2021/03/24 09:20:17;;;;;;;29.90;20.40;;;11.00;99.90;;;;;;4914380;29;20960;-72
2021/03/24 09:23:00;;;;;;;27.23;19.83;;;11.00;99.90;;;;;;4913882;29;20526;-74
2021/03/24 09:25:33;;;;;;;31.60;20.97;;;11.10;99.90;;;;;;4914067;29;20550;-74
2021/03/24 09:28:17;;;;;;;32.13;19.40;;;11.20;99.90;;;;;;4928019;29;20608;-74
2021/03/24 09:31:10;;;;;;;28.57;19.60;;;11.20;99.90;;;;;;4935974;29;20593;-74
2021/03/24 09:33:46;;;;;;;30.63;19.03;;;11.30;99.90;;;;;;4935862;29;20884;-74
2021/03/24 09:36:35;;;;;;;29.37;20.70;;;11.40;99.90;;;;;;4933586;29;20887;-74
2021/03/24 09:39:17;;;;;;;32.63;21.07;;;11.40;99.90;;;;;;4919558;29;20554;-74
2021/03/24 09:41:48;;;;;;;30.43;19.50;;;11.50;99.90;;;;;;4930540;29;20455;-75
2021/03/24 09:44:21;;;;;;;32.80;21.67;;;11.50;99.90;;;;;;4933819;29;20888;-74
2021/03/24 09:46:50;;;;;;;36.67;22.23;;;11.60;99.90;;;;;;4932249;29;21002;-73
2021/03/24 09:49:22;;;;;;;36.30;21.47;;;11.60;99.90;;;;;;4933747;29;20581;-75
2021/03/24 09:52:00;;;;;;;33.73;21.30;;;11.70;99.90;;;;;;4935399;29;20883;-73
2021/03/24 09:54:29;;;;;;;36.63;21.27;;;11.70;99.90;;;;;;4935479;29;20607;-75
2021/03/24 09:57:03;;;;;;;32.60;20.40;;;11.70;99.90;;;;;;4935230;29;20454;-74
2021/03/24 09:59:41;;;;;;;30.80;20.20;;;11.80;99.90;;;;;;4927697;29;20931;-75
2021/03/24 10:02:19;;;;;;;44.87;22.60;;;11.90;99.90;;;;;;4919405;29;20528;-75
2021/03/24 10:04:50;;;;;;;36.33;21.87;;;11.90;99.90;;;;;;4913286;29;20494;-75
2021/03/24 10:07:20;;;;;;;37.50;22.30;;;12.00;99.90;;;;;;4912960;29;20534;-74
2021/03/24 10:09:56;;;;;;;33.83;21.17;;;12.00;99.90;;;;;;4913238;29;20502;-74
2021/03/24 10:12:32;;;;;;;36.10;21.30;;;12.00;99.90;;;;;;4923630;29;20541;-74
2021/03/24 10:15:17;;;;;;;39.40;22.60;;;12.10;99.90;;;;;;4935121;29;20494;-74
2021/03/24 10:17:53;;;;;;;36.47;22.57;;;12.10;99.90;;;;;;4934003;29;20533;-75
2021/03/24 10:20:25;;;;;;;36.27;21.40;;;12.20;99.90;;;;;;4933780;29;20459;-74
2021/03/24 10:22:57;;;;;;;37.07;21.77;;;12.20;99.90;;;;;;4917924;29;20522;-75
2021/03/24 10:25:34;;;;;;;37.73;21.87;;;12.20;99.90;;;;;;4914589;29;20953;-75
2021/03/24 10:28:06;;;;;;;37.97;23.63;;;12.20;99.90;;;;;;4931678;29;20540;-75
2021/03/24 10:30:38;;;;;;;36.33;20.53;;;12.30;99.90;;;;;;4931437;29;20585;-75
2021/03/24 10:33:15;;;;;;;35.00;22.90;;;12.30;99.90;;;;;;4916449;29;20537;-75
2021/03/24 10:35:45;;;;;;;42.50;23.60;;;12.30;99.90;;;;;;4934277;29;20538;-74
2021/03/24 10:38:23;;;;;;;38.30;24.43;;;12.40;99.90;;;;;;4916480;29;20465;-75
2021/03/24 10:41:06;;;;;;;42.23;24.17;;;12.40;99.90;;;;;;4918558;29;20427;-74
2021/03/24 10:43:39;;;;;;;44.43;24.63;;;12.40;99.90;;;;;;4912834;29;20444;-74
2021/03/24 10:46:13;;;;;;;36.20;21.20;;;12.50;99.90;;;;;;4912801;29;20562;-75
2021/03/24 10:48:45;;;;;;;38.43;24.10;;;12.50;99.90;;;;;;4913729;29;20448;-74
2021/03/24 10:51:18;;;;;;;42.03;22.90;;;12.60;99.90;;;;;;4926408;29;20493;-74
2021/03/24 10:53:45;;;;;;;36.40;23.47;;;12.60;99.90;;;;;;4933233;29;20459;-74
2021/03/24 10:56:27;;;;;;;34.57;23.00;;;12.60;99.90;;;;;;4919873;29;20542;-75
2021/03/24 10:59:03;;;;;;;40.00;23.90;;;12.70;99.90;;;;;;4920035;29;20447;-75
2021/03/24 11:01:39;;;;;;;38.63;23.10;;;12.70;99.90;;;;;;4925035;29;20458;-75
2021/03/24 11:04:18;;;;;;;43.47;24.27;;;12.80;99.90;;;;;;4934190;29;20478;-74
2021/03/24 11:06:54;;;;;;;38.90;22.70;;;12.80;99.90;;;;;;4933547;29;20478;-75
2021/03/24 11:09:25;;;;;;;43.10;25.40;;;12.80;99.90;;;;;;4930453;29;20494;-76
2021/03/24 11:11:59;;;;;;;43.90;25.17;;;12.90;99.90;;;;;;4918117;29;20950;-77
2021/03/24 11:14:31;;;;;;;33.07;22.73;;;12.90;99.90;;;;;;4921269;29;20565;-78
2021/03/24 11:17:06;;;;;;;43.23;25.20;;;13.00;99.90;;;;;;4929237;29;20987;-76
2021/03/24 11:19:35;;;;;;;41.50;24.27;;;13.00;99.90;;;;;;4928867;29;21044;-74
2021/03/24 11:22:18;;;;;;;45.07;26.93;;;13.10;99.90;;;;;;4929442;29;20538;-75
2021/03/24 11:24:50;;;;;;;43.73;24.63;;;13.10;99.90;;;;;;4909960;29;21003;-74
2021/03/24 11:27:22;;;;;;;43.70;26.73;;;13.10;99.90;;;;;;4929242;29;20541;-74
2021/03/24 11:29:57;;;;;;;42.90;24.23;;;13.20;99.90;;;;;;4928946;29;20537;-73
2021/03/24 11:32:39;;;;;;;41.70;23.63;;;13.20;99.90;;;;;;4917356;29;20457;-74
2021/03/24 11:35:16;;;;;;;40.30;23.40;;;13.20;99.90;;;;;;4917497;29;20538;-73
2021/03/24 11:37:49;;;;;;;41.80;23.30;;;13.20;99.90;;;;;;4915527;29;20461;-74
2021/03/24 11:40:27;;;;;;;40.00;23.97;;;13.20;99.90;;;;;;4931357;29;20453;-74
2021/03/24 11:42:58;;;;;;;39.37;24.27;;;13.30;99.90;;;;;;4934064;29;20501;-73
2021/03/24 11:45:27;;;;;;;37.47;21.47;;;13.30;99.90;;;;;;4935570;29;20481;-75
2021/03/24 11:48:18;;;;;;;37.97;22.20;;;13.30;99.90;;;;;;4937424;29;20981;-73
2021/03/24 11:50:56;;;;;;;42.77;22.43;;;13.40;99.90;;;;;;4936438;29;20573;-74
2021/03/24 11:53:35;;;;;;;36.33;21.80;;;13.40;99.90;;;;;;4937807;29;20448;-73
2021/03/24 11:56:13;;;;;;;33.97;20.10;;;13.40;99.90;;;;;;4928135;29;20439;-75
2021/03/24 11:58:50;;;;;;;38.73;22.77;;;13.40;99.90;;;;;;4922390;29;20431;-73
2021/03/24 12:01:38;;;;;;;39.77;21.73;;;13.50;99.90;;;;;;4915775;29;20486;-75
2021/03/24 12:04:25;;;;;;;40.17;22.27;;;13.50;99.90;;;;;;4924398;29;20545;-75
2021/03/24 12:07:02;;;;;;;36.57;19.60;;;13.50;99.90;;;;;;4935642;29;20529;-74
2021/03/24 12:09:31;;;;;;;27.80;17.40;;;13.50;99.90;;;;;;4936689;29;20572;-74
2021/03/24 12:12:14;;;;;;;31.17;18.57;;;13.60;99.90;;;;;;4935092;29;20410;-74
2021/03/24 12:14:44;;;;;;;39.67;21.43;;;13.60;99.90;;;;;;4921013;29;20466;-74
2021/03/24 12:17:27;;;;;;;36.80;21.83;;;13.60;99.90;;;;;;4924837;29;20434;-74
2021/03/24 12:20:07;;;;;;;35.20;20.37;;;13.70;99.90;;;;;;4916176;29;20541;-74
2021/03/24 12:22:34;;;;;;;39.70;22.17;;;13.70;99.90;;;;;;4909362;29;20963;-74
2021/03/24 12:25:07;;;;;;;33.20;20.77;;;13.70;99.90;;;;;;4934496;29;20546;-74
2021/03/24 12:27:34;;;;;;;37.83;20.77;;;13.70;99.90;;;;;;4937058;29;20452;-74
2021/03/24 12:30:06;;;;;;;32.37;19.90;;;13.80;99.90;;;;;;4936154;29;20564;-74
2021/03/24 12:32:36;;;;;;;38.33;20.43;;;13.80;99.90;;;;;;4935694;29;20919;-74
2021/03/24 12:35:06;;;;;;;35.20;19.20;;;13.80;99.90;;;;;;4928650;29;21035;-75
2021/03/24 12:37:40;;;;;;;34.47;19.10;;;13.80;99.90;;;;;;4921771;29;20502;-74
2021/03/24 12:40:11;;;;;;;32.33;18.93;;;13.80;99.90;;;;;;4916292;29;20527;-74
2021/03/24 12:42:38;;;;;;;30.97;18.40;;;13.80;99.90;;;;;;4915250;29;20483;-73
2021/03/24 12:45:32;;;;;;;33.60;20.43;;;13.80;99.90;;;;;;4915637;29;20470;-73
2021/03/24 12:48:05;;;;;;;31.90;18.63;;;13.80;99.90;;;;;;4906300;29;20513;-73
2021/03/24 12:50:36;;;;;;;34.63;20.10;;;13.90;99.90;;;;;;4935238;29;20496;-75
2021/03/24 12:53:14;;;;;;;37.23;19.83;;;13.90;99.90;;;;;;4936030;29;20537;-75
2021/03/24 12:55:43;;;;;;;27.13;17.90;;;13.90;99.90;;;;;;4935592;29;20538;-74
2021/03/24 12:58:25;;;;;;;33.03;17.60;;;13.90;99.90;;;;;;4929393;29;20903;-74
2021/03/24 13:01:05;;;;;;;35.10;17.37;;;13.90;99.90;;;;;;4921654;29;20796;-75
2021/03/24 13:03:57;;;;;;;29.13;18.07;;;13.90;99.90;;;;;;4928190;29;21001;-74
2021/03/24 13:06:36;;;;;;;34.23;17.97;;;13.90;99.90;;;;;;4933174;29;20537;-74
2021/03/24 13:09:14;;;;;;;27.93;16.40;;;14.00;99.90;;;;;;4934292;29;20474;-74
2021/03/24 13:11:51;;;;;;;31.23;16.43;;;14.00;99.90;;;;;;4935246;29;20847;-74
2021/03/24 13:14:38;;;;;;;26.57;16.60;;;14.00;99.90;;;;;;4935112;29;20566;-74